Time;durP1;ratioP1;P1;durP2;ratioP2;P2;SDS_P1;SDS_P2;PMS_P1;PMS_P2;Temp;Humidity;BMP_temperature;BMP_pressure;BME280_temperature;BME280_humidity;BME280_pressure;Samples;Min_cycle;Max_cycle;Signal;HPM_P1;HPM_P2
2023/12/30 00:02:12;;;;;;;;;;;5.10;99.90;;;;;;5056815;28;19998;-59
2023/12/30 00:04:39;;;;;;;;;;;5.10;99.90;;;;;;5057253;28;19979;-59
2023/12/30 00:07:06;;;;;;;;;;;5.10;99.90;;;;;;5054986;28;19924;-58
2023/12/30 00:09:33;;;;;;;;;;;5.10;99.90;;;;;;5054282;28;19952;-59
2023/12/30 00:11:59;;;;;;;;;;;5.10;99.90;;;;;;5056870;28;19936;-58
2023/12/30 00:14:26;;;;;;;;;;;5.10;99.90;;;;;;5049799;28;20023;-62
2023/12/30 00:16:53;;;;;;;;;;;5.10;99.90;;;;;;5048286;28;19929;-57
2023/12/30 00:19:20;;;;;;;;;;;5.10;99.90;;;;;;5049950;28;20020;-61
2023/12/30 00:21:47;;;;;;;;;;;5.10;99.90;;;;;;5062790;28;20023;-61
2023/12/30 00:24:14;;;;;;;;;;;5.10;99.90;;;;;;5056955;28;20377;-61
2023/12/30 00:26:40;;;;;;;;;;;5.10;99.90;;;;;;5059036;28;19936;-60
2023/12/30 00:29:10;;;;;;;;;;;5.00;99.90;;;;;;5052425;28;19931;-58
2023/12/30 00:31:37;;;;;;;;;;;5.00;99.90;;;;;;5055434;28;19982;-58
2023/12/30 00:34:04;;;;;;;;;;;5.00;99.90;;;;;;5050076;28;19929;-59
2023/12/30 00:36:31;;;;;;;;;;;5.00;99.90;;;;;;5054624;28;20652;-60
2023/12/30 00:38:57;;;;;;;;;;;5.00;99.90;;;;;;5050440;28;19933;-58
2023/12/30 00:41:25;;;;;;;;;;;5.00;99.90;;;;;;5047157;28;19932;-64
2023/12/30 00:43:52;;;;;;;;;;;5.00;99.90;;;;;;5054810;28;20355;-60
2023/12/30 00:46:20;;;;;;;;;;;5.00;99.90;;;;;;5052625;28;19933;-63
2023/12/30 00:48:47;;;;;;;;;;;5.00;99.90;;;;;;5055979;28;19934;-59
2023/12/30 00:51:24;;;;;;;;;;;5.00;99.90;;;;;;5053562;28;19929;-63
2023/12/30 00:53:51;;;;;;;;;;;5.00;99.90;;;;;;5056115;28;20164;-59
2023/12/30 00:56:18;;;;;;;;;;;4.90;99.90;;;;;;5056570;28;19939;-60
2023/12/30 00:58:45;;;;;;;;;;;4.90;99.90;;;;;;5054093;28;20072;-60
2023/12/30 01:01:12;;;;;;;;;;;4.90;99.90;;;;;;5050760;28;19929;-58
2023/12/30 01:03:40;;;;;;;;;;;4.90;99.90;;;;;;5053767;28;19924;-62
2023/12/30 01:06:07;;;;;;;;;;;5.00;99.90;;;;;;5050288;28;19936;-61
2023/12/30 01:08:34;;;;;;;;;;;4.90;99.90;;;;;;5058969;28;20021;-60
2023/12/30 01:11:02;;;;;;;;;;;4.90;99.90;;;;;;5090744;28;20402;-59
2023/12/30 01:13:29;;;;;;;;;;;4.90;99.90;;;;;;5057454;28;19931;-63
2023/12/30 01:15:56;;;;;;;;;;;4.90;99.90;;;;;;5053309;28;19950;-60
2023/12/30 01:18:24;;;;;;;;;;;4.90;99.90;;;;;;5046254;28;19925;-60
2023/12/30 01:20:52;;;;;;;;;;;4.90;99.90;;;;;;5085641;28;20043;-59
2023/12/30 01:23:18;;;;;;;;;;;4.90;99.90;;;;;;5055573;28;19936;-59
2023/12/30 01:25:45;;;;;;;;;;;4.90;99.90;;;;;;5052386;28;19968;-60
2023/12/30 01:28:12;;;;;;;;;;;4.80;99.90;;;;;;5047283;28;19986;-58
2023/12/30 01:30:40;;;;;;;;;;;4.80;99.90;;;;;;5056728;28;20283;-59
2023/12/30 01:33:07;;;;;;;;;;;4.80;99.90;;;;;;5053143;28;19946;-61
2023/12/30 01:35:35;;;;;;;;;;;4.80;99.90;;;;;;5057451;28;20370;-59
2023/12/30 01:38:02;;;;;;;;;;;4.80;99.90;;;;;;5056778;28;19928;-58
2023/12/30 01:40:32;;;;;;;;;;;4.80;99.90;;;;;;5054867;28;21137;-64
2023/12/30 01:43:02;;;;;;;;;;;4.80;99.90;;;;;;5055276;28;19958;-60
2023/12/30 01:45:30;;;;;;;;;;;4.80;99.90;;;;;;5054522;28;20030;-59
2023/12/30 01:47:58;;;;;;;;;;;4.70;99.90;;;;;;5049910;28;19975;-60
2023/12/30 01:50:26;;;;;;;;;;;4.80;99.90;;;;;;5046794;28;19929;-59
2023/12/30 01:52:53;;;;;;;;;;;4.70;99.90;;;;;;5044676;28;19928;-58
2023/12/30 01:55:20;;;;;;;;;;;4.70;99.90;;;;;;5055742;28;19928;-58
2023/12/30 01:57:47;;;;;;;;;;;4.70;99.90;;;;;;5055094;28;20370;-59
2023/12/30 02:00:19;;;;;;;;;;;4.70;99.90;;;;;;5048829;28;19925;-60
2023/12/30 02:02:47;;;;;;;;;;;4.70;99.90;;;;;;5057935;28;20382;-59
2023/12/30 02:05:14;;;;;;;;;;;4.70;99.90;;;;;;5049191;28;19968;-58
2023/12/30 02:07:44;;;;;;;;;;;4.70;99.90;;;;;;5050228;28;20399;-60
2023/12/30 02:10:11;;;;;;;;;;;4.70;99.90;;;;;;5062709;28;19975;-60
2023/12/30 02:12:38;;;;;;;;;;;4.70;99.90;;;;;;5051518;28;19928;-58
2023/12/30 02:15:11;;;;;;;;;;;4.70;99.90;;;;;;5067950;28;19954;-60
2023/12/30 02:17:38;;;;;;;;;;;4.80;99.90;;;;;;5054596;28;19925;-62
2023/12/30 02:20:05;;;;;;;;;;;4.70;99.90;;;;;;5053216;28;19928;-62
2023/12/30 02:22:32;;;;;;;;;;;4.70;99.90;;;;;;5056268;28;19931;-62
2023/12/30 02:25:00;;;;;;;;;;;4.70;99.90;;;;;;5053663;28;19971;-61
2023/12/30 02:27:27;;;;;;;;;;;4.70;99.90;;;;;;5065578;28;20439;-61
2023/12/30 02:29:53;;;;;;;;;;;4.70;99.90;;;;;;5049835;28;19929;-59
2023/12/30 02:32:20;;;;;;;;;;;4.70;99.90;;;;;;5050951;28;19925;-58
2023/12/30 02:34:47;;;;;;;;;;;4.70;99.90;;;;;;5052685;28;19928;-58
2023/12/30 02:37:14;;;;;;;;;;;4.70;99.90;;;;;;5045303;28;19932;-62
2023/12/30 02:39:41;;;;;;;;;;;4.70;99.90;;;;;;5045649;28;19935;-65
2023/12/30 02:42:07;;;;;;;;;;;4.70;99.90;;;;;;5051270;28;19961;-60
2023/12/30 02:44:35;;;;;;;;;;;4.70;99.90;;;;;;5050189;28;19928;-63
2023/12/30 02:47:01;;;;;;;;;;;4.70;99.90;;;;;;5042921;28;20375;-59
2023/12/30 02:49:30;;;;;;;;;;;4.70;99.90;;;;;;5054306;28;20007;-62
2023/12/30 02:51:57;;;;;;;;;;;4.70;99.90;;;;;;5048676;28;19935;-70
2023/12/30 02:54:24;;;;;;;;;;;4.70;99.90;;;;;;5047426;28;19936;-62
2023/12/30 02:56:51;;;;;;;;;;;4.70;99.90;;;;;;5046902;28;19951;-59
2023/12/30 02:59:18;;;;;;;;;;;4.70;99.90;;;;;;5048288;28;20321;-62
2023/12/30 03:01:44;;;;;;;;;;;4.70;99.90;;;;;;5047773;28;19924;-58
2023/12/30 03:04:12;;;;;;;;;;;4.70;99.90;;;;;;5048892;28;19963;-58
2023/12/30 03:06:38;;;;;;;;;;;4.70;99.90;;;;;;5057151;28;19990;-59
2023/12/30 03:09:05;;;;;;;;;;;4.70;99.90;;;;;;5055337;28;19932;-58
2023/12/30 03:11:32;;;;;;;;;;;4.70;99.90;;;;;;5052537;28;19928;-59
2023/12/30 03:13:59;;;;;;;;;;;4.70;99.90;;;;;;5051482;28;20381;-61
2023/12/30 03:16:26;;;;;;;;;;;4.70;99.90;;;;;;5052407;28;20034;-60
2023/12/30 03:18:53;;;;;;;;;;;4.70;99.90;;;;;;5051070;28;19956;-61
2023/12/30 03:21:20;;;;;;;;;;;4.70;99.90;;;;;;5049742;28;19929;-58
2023/12/30 03:23:47;;;;;;;;;;;4.70;99.90;;;;;;5043880;28;20535;-62
2023/12/30 03:26:14;;;;;;;;;;;4.70;99.90;;;;;;5060186;28;19963;-58
2023/12/30 03:28:42;;;;;;;;;;;4.70;99.90;;;;;;5049135;28;20352;-61
2023/12/30 03:31:19;;;;;;;;;;;4.70;99.90;;;;;;5047382;28;19971;-59
2023/12/30 03:33:46;;;;;;;;;;;4.70;99.90;;;;;;5054481;28;19939;-60
2023/12/30 03:36:13;;;;;;;;;;;4.70;99.90;;;;;;5054645;28;19970;-59
2023/12/30 03:38:40;;;;;;;;;;;4.70;99.90;;;;;;5055372;28;20042;-61
2023/12/30 03:41:06;;;;;;;;;;;4.70;99.90;;;;;;5063104;28;19939;-58
2023/12/30 03:43:34;;;;;;;;;;;4.70;99.90;;;;;;5047996;28;19928;-61
2023/12/30 03:46:01;;;;;;;;;;;4.70;99.90;;;;;;5047233;28;19974;-61
2023/12/30 03:48:28;;;;;;;;;;;4.70;99.90;;;;;;5081815;28;19932;-60
2023/12/30 03:50:55;;;;;;;;;;;4.70;99.90;;;;;;5049729;28;19956;-62
2023/12/30 03:53:21;;;;;;;;;;;4.70;99.90;;;;;;5059527;28;20581;-59
2023/12/30 03:55:49;;;;;;;;;;;4.70;99.90;;;;;;5054180;28;19931;-62
2023/12/30 03:58:16;;;;;;;;;;;4.60;99.90;;;;;;5054777;28;19956;-62
2023/12/30 04:00:43;;;;;;;;;;;4.70;99.90;;;;;;5054638;28;20006;-60
2023/12/30 04:03:10;;;;;;;;;;;4.60;99.90;;;;;;5056046;28;19995;-61
2023/12/30 04:05:37;;;;;;;;;;;4.60;99.90;;;;;;5055397;28;20363;-59
2023/12/30 04:08:04;;;;;;;;;;;4.70;99.90;;;;;;5054105;28;20011;-59
2023/12/30 04:10:31;;;;;;;;;;;4.60;99.90;;;;;;5053050;28;19970;-58
2023/12/30 04:12:58;;;;;;;;;;;4.60;99.90;;;;;;5061685;28;19929;-63
2023/12/30 04:15:25;;;;;;;;;;;4.60;99.90;;;;;;5054318;28;20347;-61
2023/12/30 04:17:51;;;;;;;;;;;4.70;99.90;;;;;;5058074;28;20385;-58
2023/12/30 04:20:18;;;;;;;;;;;4.70;99.90;;;;;;5068889;28;19928;-61
2023/12/30 04:22:45;;;;;;;;;;;4.70;99.90;;;;;;5056315;28;20016;-60
2023/12/30 04:25:12;;;;;;;;;;;4.70;99.90;;;;;;5050045;28;19977;-58
2023/12/30 04:27:39;;;;;;;;;;;4.70;99.90;;;;;;5051130;28;19931;-67
2023/12/30 04:30:06;;;;;;;;;;;4.70;99.90;;;;;;5085921;28;19959;-64
2023/12/30 04:32:33;;;;;;;;;;;4.70;99.90;;;;;;5051870;28;19978;-60
2023/12/30 04:35:03;;;;;;;;;;;4.60;99.90;;;;;;5083689;28;19932;-59
2023/12/30 04:37:30;;;;;;;;;;;4.60;99.90;;;;;;5082307;28;20425;-59
2023/12/30 04:39:57;;;;;;;;;;;4.60;99.90;;;;;;5058132;28;19933;-61
2023/12/30 04:42:24;;;;;;;;;;;4.60;99.90;;;;;;5060915;28;19935;-64
2023/12/30 04:44:51;;;;;;;;;;;4.60;99.90;;;;;;5052701;28;19975;-59
2023/12/30 04:47:18;;;;;;;;;;;4.60;99.90;;;;;;5057187;28;19955;-58
2023/12/30 04:49:45;;;;;;;;;;;4.60;99.90;;;;;;5054924;28;19929;-63
2023/12/30 04:52:12;;;;;;;;;;;4.60;99.90;;;;;;5087723;28;19924;-59
2023/12/30 04:54:42;;;;;;;;;;;4.60;99.90;;;;;;5063520;28;19931;-59
2023/12/30 04:57:09;;;;;;;;;;;4.60;99.90;;;;;;5049652;28;19924;-61
2023/12/30 04:59:36;;;;;;;;;;;4.60;99.90;;;;;;5040031;28;19929;-65
2023/12/30 05:02:03;;;;;;;;;;;4.60;99.90;;;;;;5048248;28;19939;-61
2023/12/30 05:04:30;;;;;;;;;;;4.60;99.90;;;;;;5056271;28;20022;-61
2023/12/30 05:06:58;;;;;;;;;;;4.60;99.90;;;;;;5056558;28;19929;-58
2023/12/30 05:09:25;;;;;;;;;;;4.60;99.90;;;;;;5055406;28;20385;-62
2023/12/30 05:11:51;;;;;;;;;;;4.60;99.90;;;;;;5051410;28;20394;-60
2023/12/30 05:14:19;;;;;;;;;;;4.60;99.90;;;;;;5054944;28;20654;-59
2023/12/30 05:16:46;;;;;;;;;;;4.60;99.90;;;;;;5049220;28;20395;-58
2023/12/30 05:19:13;;;;;;;;;;;4.60;99.90;;;;;;5053831;28;19924;-61
2023/12/30 05:21:41;;;;;;;;;;;4.60;99.90;;;;;;5050698;28;19929;-62
2023/12/30 05:24:08;;;;;;;;;;;4.60;99.90;;;;;;5049045;28;20337;-60
2023/12/30 05:26:35;;;;;;;;;;;4.60;99.90;;;;;;5051035;28;19928;-65
2023/12/30 05:29:02;;;;;;;;;;;4.60;99.90;;;;;;5061120;28;19981;-61
2023/12/30 05:31:29;;;;;;;;;;;4.60;99.90;;;;;;5054861;28;19929;-64
2023/12/30 05:33:56;;;;;;;;;;;4.60;99.90;;;;;;5055693;28;19928;-66
2023/12/30 05:36:23;;;;;;;;;;;4.60;99.90;;;;;;5051696;28;20007;-63
2023/12/30 05:38:50;;;;;;;;;;;4.60;99.90;;;;;;5052856;28;19925;-58
2023/12/30 05:41:17;;;;;;;;;;;4.60;99.90;;;;;;5050940;28;20391;-61
2023/12/30 05:43:44;;;;;;;;;;;4.60;99.90;;;;;;5051264;28;19968;-59
2023/12/30 05:46:14;;;;;;;;;;;4.60;99.90;;;;;;5047948;28;19925;-60
2023/12/30 05:48:41;;;;;;;;;;;4.60;99.90;;;;;;5051146;28;19968;-59
2023/12/30 05:51:08;;;;;;;;;;;4.50;99.90;;;;;;5053859;28;19928;-62
2023/12/30 05:53:35;;;;;;;;;;;4.50;99.90;;;;;;5052080;28;19932;-58
2023/12/30 05:56:02;;;;;;;;;;;4.50;99.90;;;;;;5057675;28;20021;-61
2023/12/30 05:58:29;;;;;;;;;;;4.50;99.90;;;;;;5056386;28;19932;-63
2023/12/30 06:00:56;;;;;;;;;;;4.50;99.90;;;;;;5056884;28;19934;-60
2023/12/30 06:03:23;;;;;;;;;;;4.50;99.90;;;;;;5051647;28;19936;-65
2023/12/30 06:05:49;;;;;;;;;;;4.50;99.90;;;;;;5048193;28;19929;-62
2023/12/30 06:08:17;;;;;;;;;;;4.50;99.90;;;;;;5051708;28;20709;-60
2023/12/30 06:10:49;;;;;;;;;;;4.50;99.90;;;;;;5049419;28;19939;-63
2023/12/30 06:13:16;;;;;;;;;;;4.40;99.90;;;;;;5058527;28;19935;-64
2023/12/30 06:15:47;;;;;;;;;;;4.40;99.90;;;;;;5061119;28;20317;-59
2023/12/30 06:18:14;;;;;;;;;;;4.40;99.90;;;;;;5055853;28;20006;-60
2023/12/30 06:20:42;;;;;;;;;;;4.50;99.90;;;;;;5051308;28;20427;-62
2023/12/30 06:23:09;;;;;;;;;;;4.40;99.90;;;;;;5050399;28;19970;-61
2023/12/30 06:25:37;;;;;;;;;;;4.50;99.90;;;;;;5054273;28;19974;-60
2023/12/30 06:28:05;;;;;;;;;;;4.40;99.90;;;;;;5052303;28;20298;-59
2023/12/30 06:30:31;;;;;;;;;;;4.50;99.90;;;;;;5049705;28;19999;-61
2023/12/30 06:33:01;;;;;;;;;;;4.40;99.90;;;;;;5048976;28;20290;-60
2023/12/30 06:35:28;;;;;;;;;;;4.50;99.90;;;;;;5043241;28;20374;-58
2023/12/30 06:37:55;;;;;;;;;;;4.40;99.90;;;;;;5059679;28;20025;-58
2023/12/30 06:40:22;;;;;;;;;;;4.40;99.90;;;;;;5058431;28;20011;-58
2023/12/30 06:42:49;;;;;;;;;;;4.40;99.90;;;;;;5057443;28;19964;-60
2023/12/30 06:45:16;;;;;;;;;;;4.40;99.90;;;;;;5056152;28;19929;-58
2023/12/30 06:47:42;;;;;;;;;;;4.40;99.90;;;;;;5051859;28;19931;-58
2023/12/30 06:50:13;;;;;;;;;;;4.40;99.90;;;;;;5051303;28;19928;-59
2023/12/30 06:52:40;;;;;;;;;;;4.50;99.90;;;;;;5046407;28;19929;-59
2023/12/30 06:55:07;;;;;;;;;;;4.40;99.90;;;;;;5049408;28;19972;-61
2023/12/30 06:57:48;;;;;;;;;;;4.40;99.90;;;;;;5045985;28;19936;-65
2023/12/30 07:00:16;;;;;;;;;;;4.40;99.90;;;;;;5058747;28;19970;-57
2023/12/30 07:02:44;;;;;;;;;;;4.40;99.90;;;;;;5059705;28;19932;-62
2023/12/30 07:05:11;;;;;;;;;;;4.40;99.90;;;;;;5046972;28;19947;-59
2023/12/30 07:07:38;;;;;;;;;;;4.40;99.90;;;;;;5048188;28;19932;-58
2023/12/30 07:10:05;;;;;;;;;;;4.40;99.90;;;;;;5053826;28;20433;-58
2023/12/30 07:12:32;;;;;;;;;;;4.40;99.90;;;;;;5052073;28;19971;-59
2023/12/30 07:14:59;;;;;;;;;;;4.40;99.90;;;;;;5050362;28;20370;-58
2023/12/30 07:17:26;;;;;;;;;;;4.40;99.90;;;;;;5049221;28;20337;-58
2023/12/30 07:19:53;;;;;;;;;;;4.30;99.90;;;;;;5046465;28;20207;-61
2023/12/30 07:22:21;;;;;;;;;;;4.30;99.90;;;;;;5048819;28;19929;-59
2023/12/30 07:24:47;;;;;;;;;;;4.30;99.90;;;;;;5052623;28;19925;-57
2023/12/30 07:27:14;;;;;;;;;;;4.30;99.90;;;;;;5056568;28;19925;-58
2023/12/30 07:29:41;;;;;;;;;;;4.30;99.90;;;;;;5055453;28;21311;-63
2023/12/30 07:32:08;;;;;;;;;;;4.20;99.90;;;;;;5052565;28;19975;-58
2023/12/30 07:34:35;;;;;;;;;;;4.10;99.90;;;;;;5052209;28;19925;-60
2023/12/30 07:37:02;;;;;;;;;;;4.10;99.90;;;;;;5058076;28;19928;-58
2023/12/30 07:39:29;;;;;;;;;;;4.10;99.90;;;;;;5051716;28;19960;-61
2023/12/30 07:41:56;;;;;;;;;;;4.10;99.90;;;;;;5055123;28;19929;-60
2023/12/30 07:44:23;;;;;;;;;;;4.00;99.90;;;;;;5046717;28;20385;-61
2023/12/30 07:46:49;;;;;;;;;;;4.00;99.90;;;;;;5056189;28;19929;-60
2023/12/30 07:49:17;;;;;;;;;;;4.00;99.90;;;;;;5060885;28;20322;-60
2023/12/30 07:51:44;;;;;;;;;;;4.00;99.90;;;;;;5057490;28;19925;-58
2023/12/30 07:54:12;;;;;;;;;;;4.00;99.90;;;;;;5059442;28;20362;-57
2023/12/30 07:56:39;;;;;;;;;;;4.00;99.90;;;;;;5055687;28;20369;-60
2023/12/30 07:59:06;;;;;;;;;;;4.00;99.90;;;;;;5056767;28;19928;-60
2023/12/30 08:01:33;;;;;;;;;;;4.00;99.90;;;;;;5056565;28;19967;-62
2023/12/30 08:04:00;;;;;;;;;;;4.10;99.90;;;;;;5056892;28;19925;-58
2023/12/30 08:06:27;;;;;;;;;;;4.00;99.90;;;;;;5047548;28;19951;-61
2023/12/30 08:08:54;;;;;;;;;;;4.10;99.90;;;;;;5053218;28;20373;-57
2023/12/30 08:11:20;;;;;;;;;;;4.00;99.90;;;;;;5045038;28;19925;-59
2023/12/30 08:13:47;;;;;;;;;;;4.00;99.90;;;;;;5062309;28;19971;-60
2023/12/30 08:16:14;;;;;;;;;;;4.00;99.90;;;;;;5054994;28;19933;-60
2023/12/30 08:18:41;;;;;;;;;;;3.90;99.90;;;;;;5062516;28;19932;-57
2023/12/30 08:21:08;;;;;;;;;;;3.90;99.90;;;;;;5057477;28;19940;-62
2023/12/30 08:23:35;;;;;;;;;;;3.90;99.90;;;;;;5051386;28;19929;-60
2023/12/30 08:26:01;;;;;;;;;;;3.90;99.90;;;;;;5053499;28;19972;-57
2023/12/30 08:28:28;;;;;;;;;;;3.90;99.90;;;;;;5049226;28;19983;-59
2023/12/30 08:30:56;;;;;;;;;;;3.90;99.90;;;;;;5050977;28;19932;-60
2023/12/30 08:33:23;;;;;;;;;;;3.80;99.90;;;;;;5053935;28;20016;-57
2023/12/30 08:35:50;;;;;;;;;;;3.80;99.90;;;;;;5056653;28;19970;-60
2023/12/30 08:38:17;;;;;;;;;;;3.90;99.90;;;;;;5056707;28;19979;-59
2023/12/30 08:40:44;;;;;;;;;;;3.90;99.90;;;;;;5056838;28;19944;-58
2023/12/30 08:43:11;;;;;;;;;;;3.90;99.90;;;;;;5054252;28;20568;-61
2023/12/30 08:45:38;;;;;;;;;;;3.90;99.90;;;;;;5057448;28;20429;-61
2023/12/30 08:48:05;;;;;;;;;;;3.80;99.90;;;;;;5053938;28;19948;-57
2023/12/30 08:50:32;;;;;;;;;;;3.80;99.90;;;;;;5051062;28;19986;-61
2023/12/30 08:52:59;;;;;;;;;;;3.80;99.90;;;;;;5050937;28;19933;-62
2023/12/30 08:55:26;;;;;;;;;;;3.80;99.90;;;;;;5046677;28;20383;-61
2023/12/30 08:57:53;;;;;;;;;;;3.70;99.90;;;;;;5056702;28;19960;-63
2023/12/30 09:00:20;;;;;;;;;;;3.70;99.90;;;;;;5058998;28;19982;-58
2023/12/30 09:02:47;;;;;;;;;;;3.70;99.90;;;;;;5058532;28;19924;-58
2023/12/30 09:05:17;;;;;;;;;;;3.70;99.90;;;;;;5050902;28;19924;-59
2023/12/30 09:07:44;;;;;;;;;;;3.70;99.90;;;;;;5054217;28;19940;-61
2023/12/30 09:10:11;;;;;;;;;;;3.70;99.90;;;;;;5058568;28;19939;-58
2023/12/30 09:12:38;;;;;;;;;;;3.60;99.90;;;;;;5052854;28;19928;-58
2023/12/30 09:15:05;;;;;;;;;;;3.60;99.90;;;;;;5049190;28;19967;-58
2023/12/30 09:17:32;;;;;;;;;;;3.60;99.90;;;;;;5050986;28;19983;-59
2023/12/30 09:19:59;;;;;;;;;;;3.50;99.90;;;;;;5050354;28;20339;-61
2023/12/30 09:22:27;;;;;;;;;;;3.50;99.90;;;;;;5057941;28;19925;-68
2023/12/30 09:24:54;;;;;;;;;;;3.50;99.90;;;;;;5059251;28;19935;-63
2023/12/30 09:27:21;;;;;;;;;;;3.40;99.90;;;;;;5059432;28;20023;-58
2023/12/30 09:29:48;;;;;;;;;;;3.40;99.90;;;;;;5057203;28;19929;-61
2023/12/30 09:32:15;;;;;;;;;;;3.40;99.90;;;;;;5053474;28;19936;-58
2023/12/30 09:34:42;;;;;;;;;;;3.40;99.90;;;;;;5051353;28;20337;-58
2023/12/30 09:37:11;;;;;;;;;;;3.40;99.90;;;;;;5053557;28;19978;-58
2023/12/30 09:39:38;;;;;;;;;;;3.30;99.90;;;;;;5050292;28;19932;-59
2023/12/30 09:42:05;;;;;;;;;;;3.30;99.90;;;;;;5049640;28;20448;-58
2023/12/30 09:44:32;;;;;;;;;;;3.30;99.90;;;;;;5055676;28;19986;-60
2023/12/30 09:46:59;;;;;;;;;;;3.30;99.90;;;;;;5053199;28;19928;-64
2023/12/30 09:49:28;;;;;;;;;;;3.30;99.90;;;;;;5056585;28;19924;-61
2023/12/30 09:51:55;;;;;;;;;;;3.30;99.90;;;;;;5053329;28;20325;-57
2023/12/30 09:54:27;;;;;;;;;;;3.30;99.90;;;;;;5054345;28;19924;-57
2023/12/30 09:57:09;;;;;;;;;;;3.30;99.90;;;;;;5056395;28;19928;-60
2023/12/30 09:59:37;;;;;;;;;;;3.20;99.90;;;;;;5064102;28;20134;-58
2023/12/30 10:02:06;;;;;;;;;;;3.20;99.90;;;;;;5052769;28;19928;-58
2023/12/30 10:04:33;;;;;;;;;;;3.20;99.90;;;;;;5044059;28;19936;-57
2023/12/30 10:07:01;;;;;;;;;;;3.20;99.90;;;;;;5045190;28;19960;-58
2023/12/30 10:09:29;;;;;;;;;;;3.20;99.90;;;;;;5055689;28;19929;-62
2023/12/30 10:11:56;;;;;;;;;;;3.20;99.90;;;;;;5051962;28;20013;-61
2023/12/30 10:14:23;;;;;;;;;;;3.20;99.90;;;;;;5056155;28;20373;-66
2023/12/30 10:16:50;;;;;;;;;;;3.20;99.90;;;;;;5052038;28;19929;-59
2023/12/30 10:19:17;;;;;;;;;;;3.20;99.90;;;;;;5050853;28;19936;-62
2023/12/30 10:21:44;;;;;;;;;;;3.20;99.90;;;;;;5048088;28;20027;-58
2023/12/30 10:24:11;;;;;;;;;;;3.10;99.90;;;;;;5051675;28;19932;-58
2023/12/30 10:26:39;;;;;;;;;;;3.10;99.90;;;;;;5051267;28;19958;-60
2023/12/30 10:29:10;;;;;;;;;;;3.10;99.90;;;;;;5046495;28;19932;-58
2023/12/30 10:31:37;;;;;;;;;;;3.10;99.90;;;;;;5047150;28;19925;-60
2023/12/30 10:34:04;;;;;;;;;;;3.00;99.90;;;;;;5053456;28;19924;-65
2023/12/30 10:36:31;;;;;;;;;;;3.00;99.90;;;;;;5049062;28;20576;-63
2023/12/30 10:38:59;;;;;;;;;;;3.00;99.90;;;;;;5058994;28;19933;-58
2023/12/30 10:41:26;;;;;;;;;;;3.00;99.90;;;;;;5055739;28;19929;-60
2023/12/30 10:43:53;;;;;;;;;;;3.00;99.90;;;;;;5055060;28;19986;-59
2023/12/30 10:46:23;;;;;;;;;;;3.00;99.90;;;;;;5050769;28;20553;-61
2023/12/30 10:48:52;;;;;;;;;;;3.10;99.90;;;;;;5049073;28;19947;-58
2023/12/30 10:51:22;;;;;;;;;;;3.00;99.90;;;;;;5044309;28;19964;-66
2023/12/30 10:53:51;;;;;;;;;;;3.00;99.90;;;;;;5049407;28;19925;-58
2023/12/30 10:56:22;;;;;;;;;;;3.00;99.90;;;;;;5057672;28;19932;-58
2023/12/30 10:58:50;;;;;;;;;;;3.00;99.90;;;;;;5054856;28;20037;-60
2023/12/30 11:01:20;;;;;;;;;;;3.00;99.90;;;;;;5055426;28;20453;-59
2023/12/30 11:03:47;;;;;;;;;;;2.90;99.90;;;;;;5054567;28;20019;-59
2023/12/30 11:06:14;;;;;;;;;;;2.90;99.90;;;;;;5051065;28;19929;-59
2023/12/30 11:08:43;;;;;;;;;;;2.90;99.90;;;;;;5054894;28;19933;-61
2023/12/30 11:11:17;;;;;;;;;;;3.00;99.90;;;;;;5058176;28;20365;-59
2023/12/30 11:13:44;;;;;;;;;;;2.90;99.90;;;;;;5050319;28;20027;-59
2023/12/30 11:16:15;;;;;;;;;;;2.90;99.90;;;;;;5051907;28;20537;-58
2023/12/30 11:18:45;;;;;;;;;;;2.90;99.90;;;;;;5059697;28;19944;-61
2023/12/30 11:21:12;;;;;;;;;;;2.90;99.90;;;;;;5056231;28;19925;-58
2023/12/30 11:23:39;;;;;;;;;;;2.90;99.90;;;;;;5053039;28;19929;-58
2023/12/30 11:26:11;;;;;;;;;;;2.90;99.90;;;;;;5088740;28;19994;-64
2023/12/30 11:28:42;;;;;;;;;;;2.80;99.90;;;;;;5058942;28;19928;-60
2023/12/30 11:31:09;;;;;;;;;;;2.80;99.90;;;;;;5055793;28;19928;-62
2023/12/30 11:33:35;;;;;;;;;;;2.80;99.90;;;;;;5055243;28;19929;-59
2023/12/30 11:36:03;;;;;;;;;;;2.80;99.90;;;;;;5052288;28;19931;-57
2023/12/30 11:38:31;;;;;;;;;;;2.80;99.90;;;;;;5050744;28;19940;-62
2023/12/30 11:40:59;;;;;;;;;;;2.80;99.90;;;;;;5053871;28;19986;-58
2023/12/30 11:43:26;;;;;;;;;;;2.80;99.90;;;;;;5061714;28;20363;-61
2023/12/30 11:45:53;;;;;;;;;;;2.80;99.90;;;;;;5058711;28;20310;-61
2023/12/30 11:48:21;;;;;;;;;;;2.80;99.90;;;;;;5057718;28;19933;-58
2023/12/30 11:50:53;;;;;;;;;;;2.70;99.90;;;;;;5060041;28;20015;-61
2023/12/30 11:53:21;;;;;;;;;;;2.80;99.90;;;;;;5056655;28;19940;-58
2023/12/30 11:55:48;;;;;;;;;;;2.70;99.90;;;;;;5053150;28;21307;-60
2023/12/30 11:58:15;;;;;;;;;;;2.70;99.90;;;;;;5056467;28;19933;-57
2023/12/30 12:00:42;;;;;;;;;;;2.70;99.90;;;;;;5051429;28;19986;-59
2023/12/30 12:03:10;;;;;;;;;;;2.70;99.90;;;;;;5053836;28;19956;-58
2023/12/30 12:05:37;;;;;;;;;;;2.60;99.90;;;;;;5055834;28;20402;-58
2023/12/30 12:08:04;;;;;;;;;;;2.60;99.90;;;;;;5058986;28;19925;-64
2023/12/30 12:10:32;;;;;;;;;;;2.60;99.90;;;;;;5054488;28;19924;-60
2023/12/30 12:13:02;;;;;;;;;;;2.50;99.90;;;;;;5057347;28;20295;-58
2023/12/30 12:15:30;;;;;;;;;;;2.50;99.90;;;;;;5055453;28;20029;-63
2023/12/30 12:17:58;;;;;;;;;;;2.40;99.90;;;;;;5055591;28;20023;-59
2023/12/30 12:20:26;;;;;;;;;;;2.40;99.90;;;;;;5054433;28;19928;-63
2023/12/30 12:22:53;;;;;;;;;;;2.30;99.90;;;;;;5048459;28;19951;-66
2023/12/30 12:25:21;;;;;;;;;;;2.30;99.90;;;;;;5051921;28;19936;-60
2023/12/30 12:27:48;;;;;;;;;;;2.30;99.90;;;;;;5047709;28;19953;-59
2023/12/30 12:30:15;;;;;;;;;;;2.20;99.90;;;;;;5060183;28;19931;-61
2023/12/30 12:32:42;;;;;;;;;;;2.30;99.90;;;;;;5058600;28;19928;-59
2023/12/30 12:35:09;;;;;;;;;;;2.20;99.90;;;;;;5058191;28;20333;-59
2023/12/30 12:37:36;;;;;;;;;;;2.20;99.90;;;;;;5060074;28;19976;-62
2023/12/30 12:40:10;;;;;;;;;;;2.30;99.90;;;;;;5053676;28;20021;-60
2023/12/30 12:42:37;;;;;;;;;;;2.20;99.90;;;;;;5051050;28;19928;-60
2023/12/30 12:45:04;;;;;;;;;;;2.20;99.90;;;;;;5054640;28;20254;-63
2023/12/30 12:47:31;;;;;;;;;;;2.20;99.90;;;;;;5051776;28;20282;-61
2023/12/30 12:49:58;;;;;;;;;;;2.20;99.90;;;;;;5052192;28;19929;-60
2023/12/30 12:52:25;;;;;;;;;;;2.20;99.90;;;;;;5054207;28;19932;-61
2023/12/30 12:54:52;;;;;;;;;;;2.20;99.90;;;;;;5063390;28;20020;-61
2023/12/30 12:57:19;;;;;;;;;;;2.20;99.90;;;;;;5048961;28;20400;-58
2023/12/30 12:59:46;;;;;;;;;;;2.20;99.90;;;;;;5054183;28;19932;-58
2023/12/30 13:02:13;;;;;;;;;;;2.20;99.90;;;;;;5058311;28;20515;-58
2023/12/30 13:04:41;;;;;;;;;;;2.30;99.90;;;;;;5050312;28;19956;-58
2023/12/30 13:07:08;;;;;;;;;;;2.30;99.90;;;;;;5052912;28;19924;-61
2023/12/30 13:09:42;;;;;;;;;;;2.30;99.90;;;;;;5049558;28;20023;-58
2023/12/30 13:12:09;;;;;;;;;;;2.30;99.90;;;;;;5050867;28;19924;-59
2023/12/30 13:14:36;;;;;;;;;;;2.30;99.90;;;;;;5046809;28;19935;-59
2023/12/30 13:17:10;;;;;;;;;;;2.30;99.90;;;;;;5062165;28;19967;-59
2023/12/30 13:19:37;;;;;;;;;;;2.30;99.90;;;;;;5059558;28;19925;-64
2023/12/30 13:22:04;;;;;;;;;;;2.20;99.90;;;;;;5057856;28;19931;-61
2023/12/30 13:24:31;;;;;;;;;;;2.20;99.90;;;;;;5055985;28;19949;-63
2023/12/30 13:26:59;;;;;;;;;;;2.20;99.90;;;;;;5059830;28;19997;-63
2023/12/30 13:29:26;;;;;;;;;;;2.20;99.90;;;;;;5053387;28;19937;-66
2023/12/30 13:31:54;;;;;;;;;;;2.20;99.90;;;;;;5054246;28;20019;-61
2023/12/30 13:34:21;;;;;;;;;;;2.20;99.90;;;;;;5051538;28;19983;-65
2023/12/30 13:36:53;;;;;;;;;;;2.20;99.90;;;;;;5045385;28;19933;-60
2023/12/30 13:39:21;;;;;;;;;;;2.20;99.90;;;;;;5053510;28;19932;-59
2023/12/30 13:41:47;;;;;;;;;;;2.10;99.90;;;;;;5062484;28;20019;-58
2023/12/30 13:44:15;;;;;;;;;;;2.10;99.90;;;;;;5059174;28;19929;-62
2023/12/30 13:52:19;;;;;;;;;;;2.10;99.90;;;;;;5046297;28;20592;-58
2023/12/30 13:54:46;;;;;;;;;;;2.10;99.90;;;;;;5045479;28;20011;-60
2023/12/30 13:57:13;;;;;;;;;;;2.10;99.90;;;;;;5048130;28;20031;-58
2023/12/30 13:59:44;;;;;;;;;;;2.10;99.90;;;;;;5052715;28;19939;-62
2023/12/30 14:02:16;;;;;;;;;;;2.10;99.90;;;;;;5050126;28;19924;-63
2023/12/30 14:04:46;;;;;;;;;;;2.10;99.90;;;;;;5052170;28;20027;-62
2023/12/30 14:07:24;;;;;;;;;;;2.10;99.90;;;;;;5056977;28;19978;-59
2023/12/30 14:09:54;;;;;;;;;;;2.00;99.90;;;;;;5057810;28;19955;-64
2023/12/30 14:12:23;;;;;;;;;;;2.00;99.90;;;;;;5055082;28;19960;-60
2023/12/30 14:15:05;;;;;;;;;;;2.10;99.90;;;;;;5055743;28;19932;-58
2023/12/30 14:17:34;;;;;;;;;;;2.00;99.90;;;;;;5049306;28;20424;-60
2023/12/30 14:20:04;;;;;;;;;;;2.00;99.90;;;;;;5050134;28;20854;-60
2023/12/30 14:22:32;;;;;;;;;;;1.90;99.90;;;;;;5047110;28;19924;-58
2023/12/30 14:24:59;;;;;;;;;;;2.00;99.90;;;;;;5047970;28;19931;-64
2023/12/30 14:27:26;;;;;;;;;;;2.00;99.90;;;;;;5056210;28;20593;-65
2023/12/30 14:29:57;;;;;;;;;;;2.00;99.90;;;;;;5057186;28;19928;-61
2023/12/30 14:32:24;;;;;;;;;;;2.00;99.90;;;;;;5055042;28;19972;-59
2023/12/30 14:34:51;;;;;;;;;;;2.00;99.90;;;;;;5050558;28;19951;-59
2023/12/30 14:37:18;;;;;;;;;;;2.00;99.90;;;;;;5055677;28;19969;-62
2023/12/30 14:39:45;;;;;;;;;;;1.90;99.90;;;;;;5051702;28;20012;-60